sensor_id;sensor_type;location;lat;lon;timestamp;P1;durP1;ratioP1;P2;durP2;ratioP2
21392;SDS011;10857;52.228;21.026;2023-12-07T00:02:04;70.93;;;29.50;;
21392;SDS011;10857;52.228;21.026;2023-12-07T00:04:32;68.83;;;28.47;;
21392;SDS011;10857;52.228;21.026;2023-12-07T00:06:59;69.13;;;28.63;;
21392;SDS011;10857;52.228;21.026;2023-12-07T00:09:26;70.63;;;28.60;;
21392;SDS011;10857;52.228;21.026;2023-12-07T00:11:53;72.03;;;28.20;;
21392;SDS011;10857;52.228;21.026;2023-12-07T00:14:20;69.33;;;28.30;;
21392;SDS011;10857;52.228;21.026;2023-12-07T00:16:47;67.93;;;27.23;;
21392;SDS011;10857;52.228;21.026;2023-12-07T00:19:15;72.67;;;27.87;;
21392;SDS011;10857;52.228;21.026;2023-12-07T00:21:42;68.67;;;27.73;;
21392;SDS011;10857;52.228;21.026;2023-12-07T00:24:09;70.00;;;27.40;;
21392;SDS011;10857;52.228;21.026;2023-12-07T00:26:36;72.37;;;28.93;;
21392;SDS011;10857;52.228;21.026;2023-12-07T00:29:04;78.87;;;28.70;;
21392;SDS011;10857;52.228;21.026;2023-12-07T00:31:31;69.27;;;28.27;;
21392;SDS011;10857;52.228;21.026;2023-12-07T00:33:58;72.83;;;28.73;;
21392;SDS011;10857;52.228;21.026;2023-12-07T00:36:26;74.37;;;28.30;;
21392;SDS011;10857;52.228;21.026;2023-12-07T00:38:53;70.97;;;28.17;;
21392;SDS011;10857;52.228;21.026;2023-12-07T00:41:20;72.43;;;28.63;;
21392;SDS011;10857;52.228;21.026;2023-12-07T00:43:47;73.47;;;27.33;;
21392;SDS011;10857;52.228;21.026;2023-12-07T00:46:14;74.23;;;27.87;;
21392;SDS011;10857;52.228;21.026;2023-12-07T00:48:41;78.20;;;30.00;;
21392;SDS011;10857;52.228;21.026;2023-12-07T00:51:08;77.90;;;28.33;;
21392;SDS011;10857;52.228;21.026;2023-12-07T00:53:36;79.63;;;28.70;;
21392;SDS011;10857;52.228;21.026;2023-12-07T00:56:03;70.60;;;28.77;;
21392;SDS011;10857;52.228;21.026;2023-12-07T00:58:31;74.30;;;28.27;;
21392;SDS011;10857;52.228;21.026;2023-12-07T01:00:58;74.30;;;27.60;;
21392;SDS011;10857;52.228;21.026;2023-12-07T01:03:25;78.73;;;28.23;;
21392;SDS011;10857;52.228;21.026;2023-12-07T01:05:52;76.40;;;27.67;;
21392;SDS011;10857;52.228;21.026;2023-12-07T01:08:19;80.30;;;28.37;;
21392;SDS011;10857;52.228;21.026;2023-12-07T01:10:46;85.40;;;28.17;;
21392;SDS011;10857;52.228;21.026;2023-12-07T01:13:13;77.53;;;27.47;;
21392;SDS011;10857;52.228;21.026;2023-12-07T01:15:40;75.97;;;27.47;;
21392;SDS011;10857;52.228;21.026;2023-12-07T01:18:07;80.00;;;29.00;;
21392;SDS011;10857;52.228;21.026;2023-12-07T01:20:34;76.63;;;27.57;;
21392;SDS011;10857;52.228;21.026;2023-12-07T01:23:01;80.97;;;28.30;;
21392;SDS011;10857;52.228;21.026;2023-12-07T01:25:29;77.07;;;28.00;;
21392;SDS011;10857;52.228;21.026;2023-12-07T01:27:56;87.73;;;29.77;;
21392;SDS011;10857;52.228;21.026;2023-12-07T01:30:23;81.53;;;28.50;;
21392;SDS011;10857;52.228;21.026;2023-12-07T01:32:50;77.90;;;28.37;;
21392;SDS011;10857;52.228;21.026;2023-12-07T01:35:17;78.77;;;27.93;;
21392;SDS011;10857;52.228;21.026;2023-12-07T01:37:44;82.77;;;28.27;;
21392;SDS011;10857;52.228;21.026;2023-12-07T01:40:12;86.03;;;28.47;;
21392;SDS011;10857;52.228;21.026;2023-12-07T01:42:49;80.57;;;28.00;;
21392;SDS011;10857;52.228;21.026;2023-12-07T01:45:18;84.73;;;27.80;;
21392;SDS011;10857;52.228;21.026;2023-12-07T01:47:46;88.77;;;28.30;;
21392;SDS011;10857;52.228;21.026;2023-12-07T01:50:16;84.03;;;28.67;;
21392;SDS011;10857;52.228;21.026;2023-12-07T01:52:51;89.10;;;28.27;;
21392;SDS011;10857;52.228;21.026;2023-12-07T01:55:21;86.93;;;29.37;;
21392;SDS011;10857;52.228;21.026;2023-12-07T01:57:49;87.37;;;28.37;;
21392;SDS011;10857;52.228;21.026;2023-12-07T02:00:16;86.83;;;28.17;;
21392;SDS011;10857;52.228;21.026;2023-12-07T02:02:44;81.63;;;28.57;;
21392;SDS011;10857;52.228;21.026;2023-12-07T02:05:13;89.17;;;27.30;;
21392;SDS011;10857;52.228;21.026;2023-12-07T02:07:41;93.17;;;27.93;;
21392;SDS011;10857;52.228;21.026;2023-12-07T02:10:10;84.97;;;28.47;;
21392;SDS011;10857;52.228;21.026;2023-12-07T02:12:37;79.60;;;27.70;;
21392;SDS011;10857;52.228;21.026;2023-12-07T02:15:04;79.70;;;25.97;;
21392;SDS011;10857;52.228;21.026;2023-12-07T02:17:33;85.37;;;27.57;;
21392;SDS011;10857;52.228;21.026;2023-12-07T02:22:49;85.67;;;26.73;;
21392;SDS011;10857;52.228;21.026;2023-12-07T02:25:23;94.70;;;27.43;;
21392;SDS011;10857;52.228;21.026;2023-12-07T02:27:55;78.13;;;26.60;;
21392;SDS011;10857;52.228;21.026;2023-12-07T02:30:22;80.60;;;26.90;;
21392;SDS011;10857;52.228;21.026;2023-12-07T02:32:49;86.63;;;27.47;;
21392;SDS011;10857;52.228;21.026;2023-12-07T02:35:17;81.47;;;27.23;;
21392;SDS011;10857;52.228;21.026;2023-12-07T02:37:50;78.87;;;26.77;;
21392;SDS011;10857;52.228;21.026;2023-12-07T02:40:22;75.83;;;26.90;;
21392;SDS011;10857;52.228;21.026;2023-12-07T02:42:54;80.40;;;26.93;;
21392;SDS011;10857;52.228;21.026;2023-12-07T02:45:23;80.17;;;27.17;;
21392;SDS011;10857;52.228;21.026;2023-12-07T02:47:50;81.10;;;26.73;;
21392;SDS011;10857;52.228;21.026;2023-12-07T02:50:17;79.87;;;27.00;;
21392;SDS011;10857;52.228;21.026;2023-12-07T02:52:44;75.23;;;26.53;;
21392;SDS011;10857;52.228;21.026;2023-12-07T02:55:12;78.17;;;27.17;;
21392;SDS011;10857;52.228;21.026;2023-12-07T02:57:39;80.33;;;26.70;;
21392;SDS011;10857;52.228;21.026;2023-12-07T03:00:06;79.30;;;26.33;;
21392;SDS011;10857;52.228;21.026;2023-12-07T03:02:34;80.47;;;26.00;;
21392;SDS011;10857;52.228;21.026;2023-12-07T03:05:02;79.60;;;25.77;;
21392;SDS011;10857;52.228;21.026;2023-12-07T03:07:30;79.70;;;25.57;;
21392;SDS011;10857;52.228;21.026;2023-12-07T03:09:57;68.10;;;24.70;;
21392;SDS011;10857;52.228;21.026;2023-12-07T03:12:24;72.67;;;25.33;;
21392;SDS011;10857;52.228;21.026;2023-12-07T03:14:52;69.30;;;25.43;;
21392;SDS011;10857;52.228;21.026;2023-12-07T03:17:19;74.10;;;25.63;;
21392;SDS011;10857;52.228;21.026;2023-12-07T03:19:46;72.20;;;25.23;;
21392;SDS011;10857;52.228;21.026;2023-12-07T03:22:13;72.10;;;25.40;;
21392;SDS011;10857;52.228;21.026;2023-12-07T03:24:43;71.80;;;25.17;;
21392;SDS011;10857;52.228;21.026;2023-12-07T03:27:13;68.87;;;23.73;;
21392;SDS011;10857;52.228;21.026;2023-12-07T03:29:40;70.40;;;25.63;;
21392;SDS011;10857;52.228;21.026;2023-12-07T03:32:07;72.60;;;25.23;;
21392;SDS011;10857;52.228;21.026;2023-12-07T03:34:34;69.87;;;24.17;;
21392;SDS011;10857;52.228;21.026;2023-12-07T03:37:01;72.00;;;25.30;;
21392;SDS011;10857;52.228;21.026;2023-12-07T03:39:29;66.27;;;23.33;;
21392;SDS011;10857;52.228;21.026;2023-12-07T03:42:00;67.90;;;23.90;;
21392;SDS011;10857;52.228;21.026;2023-12-07T03:44:26;65.30;;;24.77;;
21392;SDS011;10857;52.228;21.026;2023-12-07T03:46:54;72.80;;;25.20;;
21392;SDS011;10857;52.228;21.026;2023-12-07T03:49:21;72.77;;;25.17;;
21392;SDS011;10857;52.228;21.026;2023-12-07T03:51:48;66.53;;;24.93;;
21392;SDS011;10857;52.228;21.026;2023-12-07T03:54:15;65.90;;;24.80;;
21392;SDS011;10857;52.228;21.026;2023-12-07T03:56:43;67.20;;;23.67;;
21392;SDS011;10857;52.228;21.026;2023-12-07T03:59:10;63.27;;;24.10;;
21392;SDS011;10857;52.228;21.026;2023-12-07T04:01:37;69.00;;;24.10;;
21392;SDS011;10857;52.228;21.026;2023-12-07T04:04:04;63.73;;;24.03;;
21392;SDS011;10857;52.228;21.026;2023-12-07T04:06:31;63.03;;;22.90;;
21392;SDS011;10857;52.228;21.026;2023-12-07T04:08:59;65.33;;;24.03;;
21392;SDS011;10857;52.228;21.026;2023-12-07T04:11:26;69.10;;;24.17;;
21392;SDS011;10857;52.228;21.026;2023-12-07T04:13:53;68.87;;;24.97;;
21392;SDS011;10857;52.228;21.026;2023-12-07T04:16:20;64.50;;;24.03;;
21392;SDS011;10857;52.228;21.026;2023-12-07T04:18:48;63.77;;;23.60;;
21392;SDS011;10857;52.228;21.026;2023-12-07T04:21:15;65.97;;;24.60;;
21392;SDS011;10857;52.228;21.026;2023-12-07T04:23:42;62.97;;;23.50;;
21392;SDS011;10857;52.228;21.026;2023-12-07T04:26:09;68.67;;;24.13;;
21392;SDS011;10857;52.228;21.026;2023-12-07T04:28:36;67.27;;;23.87;;
21392;SDS011;10857;52.228;21.026;2023-12-07T04:31:04;67.73;;;24.43;;
21392;SDS011;10857;52.228;21.026;2023-12-07T04:33:31;67.67;;;24.53;;
21392;SDS011;10857;52.228;21.026;2023-12-07T04:35:58;65.67;;;24.67;;
21392;SDS011;10857;52.228;21.026;2023-12-07T04:38:25;66.47;;;23.00;;
21392;SDS011;10857;52.228;21.026;2023-12-07T04:40:52;66.43;;;23.27;;
21392;SDS011;10857;52.228;21.026;2023-12-07T04:43:19;70.07;;;24.00;;
21392;SDS011;10857;52.228;21.026;2023-12-07T04:45:47;63.57;;;23.37;;
21392;SDS011;10857;52.228;21.026;2023-12-07T04:48:14;64.97;;;24.50;;
21392;SDS011;10857;52.228;21.026;2023-12-07T04:50:41;62.53;;;23.67;;
21392;SDS011;10857;52.228;21.026;2023-12-07T04:53:08;68.10;;;23.40;;
21392;SDS011;10857;52.228;21.026;2023-12-07T04:55:36;61.03;;;23.13;;
21392;SDS011;10857;52.228;21.026;2023-12-07T04:58:03;60.47;;;23.30;;
21392;SDS011;10857;52.228;21.026;2023-12-07T05:00:30;65.97;;;23.33;;
21392;SDS011;10857;52.228;21.026;2023-12-07T05:02:57;63.33;;;23.17;;
21392;SDS011;10857;52.228;21.026;2023-12-07T05:05:24;58.90;;;22.03;;
21392;SDS011;10857;52.228;21.026;2023-12-07T05:07:51;61.10;;;22.60;;
21392;SDS011;10857;52.228;21.026;2023-12-07T05:10:18;59.37;;;22.40;;
21392;SDS011;10857;52.228;21.026;2023-12-07T05:12:46;64.00;;;22.93;;
21392;SDS011;10857;52.228;21.026;2023-12-07T05:15:13;59.10;;;22.33;;
21392;SDS011;10857;52.228;21.026;2023-12-07T05:17:40;58.57;;;23.40;;
21392;SDS011;10857;52.228;21.026;2023-12-07T05:20:07;61.37;;;23.03;;
21392;SDS011;10857;52.228;21.026;2023-12-07T05:22:34;58.30;;;23.30;;
21392;SDS011;10857;52.228;21.026;2023-12-07T05:25:01;60.47;;;22.20;;
21392;SDS011;10857;52.228;21.026;2023-12-07T05:27:29;58.73;;;21.93;;
21392;SDS011;10857;52.228;21.026;2023-12-07T05:29:56;67.67;;;23.57;;
21392;SDS011;10857;52.228;21.026;2023-12-07T05:32:23;56.83;;;23.10;;
21392;SDS011;10857;52.228;21.026;2023-12-07T05:34:51;60.40;;;22.63;;
21392;SDS011;10857;52.228;21.026;2023-12-07T05:37:18;60.07;;;22.97;;
21392;SDS011;10857;52.228;21.026;2023-12-07T05:39:45;61.33;;;23.30;;
21392;SDS011;10857;52.228;21.026;2023-12-07T05:42:12;59.37;;;22.37;;
21392;SDS011;10857;52.228;21.026;2023-12-07T05:44:39;61.97;;;23.67;;
21392;SDS011;10857;52.228;21.026;2023-12-07T05:47:06;60.20;;;23.33;;
21392;SDS011;10857;52.228;21.026;2023-12-07T05:49:34;60.60;;;21.73;;
21392;SDS011;10857;52.228;21.026;2023-12-07T05:52:01;57.80;;;23.67;;
21392;SDS011;10857;52.228;21.026;2023-12-07T05:54:29;58.47;;;23.17;;
21392;SDS011;10857;52.228;21.026;2023-12-07T05:56:56;60.73;;;22.70;;
21392;SDS011;10857;52.228;21.026;2023-12-07T05:59:23;62.70;;;23.23;;
21392;SDS011;10857;52.228;21.026;2023-12-07T06:01:53;61.40;;;22.53;;
21392;SDS011;10857;52.228;21.026;2023-12-07T06:04:20;58.80;;;23.23;;
21392;SDS011;10857;52.228;21.026;2023-12-07T06:06:48;63.73;;;23.87;;
21392;SDS011;10857;52.228;21.026;2023-12-07T06:09:15;58.00;;;22.47;;
21392;SDS011;10857;52.228;21.026;2023-12-07T06:11:42;56.90;;;22.47;;
21392;SDS011;10857;52.228;21.026;2023-12-07T06:14:09;56.00;;;23.63;;
21392;SDS011;10857;52.228;21.026;2023-12-07T06:16:36;54.53;;;22.43;;
21392;SDS011;10857;52.228;21.026;2023-12-07T06:19:03;55.43;;;22.43;;
21392;SDS011;10857;52.228;21.026;2023-12-07T06:21:31;52.50;;;22.40;;
21392;SDS011;10857;52.228;21.026;2023-12-07T06:23:59;58.90;;;23.00;;
21392;SDS011;10857;52.228;21.026;2023-12-07T06:26:27;54.00;;;22.13;;
21392;SDS011;10857;52.228;21.026;2023-12-07T06:28:54;54.87;;;23.20;;
21392;SDS011;10857;52.228;21.026;2023-12-07T06:31:21;57.17;;;22.87;;
21392;SDS011;10857;52.228;21.026;2023-12-07T06:33:49;56.13;;;22.43;;
21392;SDS011;10857;52.228;21.026;2023-12-07T06:36:20;58.57;;;23.70;;
21392;SDS011;10857;52.228;21.026;2023-12-07T06:38:48;55.77;;;23.47;;
21392;SDS011;10857;52.228;21.026;2023-12-07T06:41:15;57.83;;;22.57;;
21392;SDS011;10857;52.228;21.026;2023-12-07T06:43:42;55.30;;;22.30;;
21392;SDS011;10857;52.228;21.026;2023-12-07T06:46:14;53.27;;;22.17;;
21392;SDS011;10857;52.228;21.026;2023-12-07T06:48:43;55.33;;;23.17;;
21392;SDS011;10857;52.228;21.026;2023-12-07T06:51:10;58.17;;;23.57;;
21392;SDS011;10857;52.228;21.026;2023-12-07T06:53:39;52.00;;;21.83;;
21392;SDS011;10857;52.228;21.026;2023-12-07T06:56:07;54.70;;;23.87;;
21392;SDS011;10857;52.228;21.026;2023-12-07T06:58:35;54.00;;;22.90;;
21392;SDS011;10857;52.228;21.026;2023-12-07T07:01:02;54.40;;;22.60;;
21392;SDS011;10857;52.228;21.026;2023-12-07T07:03:29;51.80;;;23.00;;
21392;SDS011;10857;52.228;21.026;2023-12-07T07:05:56;56.10;;;23.07;;
21392;SDS011;10857;52.228;21.026;2023-12-07T07:08:25;52.93;;;22.77;;
21392;SDS011;10857;52.228;21.026;2023-12-07T07:10:52;55.73;;;22.93;;
21392;SDS011;10857;52.228;21.026;2023-12-07T07:13:19;60.97;;;26.65;;
21392;SDS011;10857;52.228;21.026;2023-12-07T07:15:46;52.73;;;23.30;;
21392;SDS011;10857;52.228;21.026;2023-12-07T07:18:14;54.97;;;23.97;;
21392;SDS011;10857;52.228;21.026;2023-12-07T07:20:42;53.80;;;24.10;;
21392;SDS011;10857;52.228;21.026;2023-12-07T07:23:09;57.93;;;24.33;;
21392;SDS011;10857;52.228;21.026;2023-12-07T07:25:37;58.13;;;23.63;;
21392;SDS011;10857;52.228;21.026;2023-12-07T07:28:05;59.47;;;24.70;;
21392;SDS011;10857;52.228;21.026;2023-12-07T07:30:32;59.13;;;23.80;;
21392;SDS011;10857;52.228;21.026;2023-12-07T07:32:59;55.17;;;23.33;;
21392;SDS011;10857;52.228;21.026;2023-12-07T07:35:27;55.47;;;22.97;;
21392;SDS011;10857;52.228;21.026;2023-12-07T07:37:55;57.03;;;24.20;;
21392;SDS011;10857;52.228;21.026;2023-12-07T07:40:22;58.33;;;23.47;;
21392;SDS011;10857;52.228;21.026;2023-12-07T07:42:51;57.53;;;24.63;;
21392;SDS011;10857;52.228;21.026;2023-12-07T07:45:18;53.43;;;24.17;;
21392;SDS011;10857;52.228;21.026;2023-12-07T07:47:45;55.77;;;23.97;;
21392;SDS011;10857;52.228;21.026;2023-12-07T07:50:13;53.93;;;24.00;;
21392;SDS011;10857;52.228;21.026;2023-12-07T07:52:40;54.40;;;24.27;;
21392;SDS011;10857;52.228;21.026;2023-12-07T07:55:07;55.57;;;24.90;;
21392;SDS011;10857;52.228;21.026;2023-12-07T07:57:35;58.10;;;24.47;;
21392;SDS011;10857;52.228;21.026;2023-12-07T08:00:02;56.37;;;24.83;;
21392;SDS011;10857;52.228;21.026;2023-12-07T08:02:31;58.00;;;25.23;;
21392;SDS011;10857;52.228;21.026;2023-12-07T08:04:58;56.87;;;23.83;;
21392;SDS011;10857;52.228;21.026;2023-12-07T08:07:25;56.53;;;24.07;;
21392;SDS011;10857;52.228;21.026;2023-12-07T08:09:53;55.87;;;25.23;;
21392;SDS011;10857;52.228;21.026;2023-12-07T08:12:20;61.33;;;26.47;;
21392;SDS011;10857;52.228;21.026;2023-12-07T08:14:49;59.87;;;25.63;;
21392;SDS011;10857;52.228;21.026;2023-12-07T08:17:17;55.93;;;25.50;;
21392;SDS011;10857;52.228;21.026;2023-12-07T08:19:46;59.33;;;26.17;;
21392;SDS011;10857;52.228;21.026;2023-12-07T08:22:14;56.00;;;25.17;;
21392;SDS011;10857;52.228;21.026;2023-12-07T08:24:42;57.50;;;26.53;;
21392;SDS011;10857;52.228;21.026;2023-12-07T08:27:12;55.23;;;25.07;;
21392;SDS011;10857;52.228;21.026;2023-12-07T08:29:38;61.33;;;26.53;;
21392;SDS011;10857;52.228;21.026;2023-12-07T08:32:07;57.70;;;25.40;;
21392;SDS011;10857;52.228;21.026;2023-12-07T08:34:34;56.23;;;24.93;;
21392;SDS011;10857;52.228;21.026;2023-12-07T08:37:01;57.93;;;25.63;;
21392;SDS011;10857;52.228;21.026;2023-12-07T08:39:29;60.43;;;26.80;;
21392;SDS011;10857;52.228;21.026;2023-12-07T08:41:56;54.67;;;26.03;;
21392;SDS011;10857;52.228;21.026;2023-12-07T08:44:23;60.47;;;27.37;;
21392;SDS011;10857;52.228;21.026;2023-12-07T08:46:51;58.43;;;26.27;;
21392;SDS011;10857;52.228;21.026;2023-12-07T08:49:18;61.40;;;27.13;;
21392;SDS011;10857;52.228;21.026;2023-12-07T08:51:45;59.80;;;26.63;;
21392;SDS011;10857;52.228;21.026;2023-12-07T08:54:32;55.03;;;26.27;;
21392;SDS011;10857;52.228;21.026;2023-12-07T08:57:00;59.20;;;26.83;;
21392;SDS011;10857;52.228;21.026;2023-12-07T08:59:27;66.10;;;27.93;;
21392;SDS011;10857;52.228;21.026;2023-12-07T09:01:54;62.60;;;27.37;;
21392;SDS011;10857;52.228;21.026;2023-12-07T09:04:21;61.93;;;27.80;;
21392;SDS011;10857;52.228;21.026;2023-12-07T09:06:48;63.00;;;28.30;;
21392;SDS011;10857;52.228;21.026;2023-12-07T09:09:16;62.13;;;28.20;;
21392;SDS011;10857;52.228;21.026;2023-12-07T09:11:43;66.33;;;29.20;;
21392;SDS011;10857;52.228;21.026;2023-12-07T09:14:10;69.17;;;28.57;;
21392;SDS011;10857;52.228;21.026;2023-12-07T09:16:44;65.97;;;28.70;;
21392;SDS011;10857;52.228;21.026;2023-12-07T09:19:12;63.40;;;29.70;;
21392;SDS011;10857;52.228;21.026;2023-12-07T09:21:40;67.40;;;28.37;;
21392;SDS011;10857;52.228;21.026;2023-12-07T09:24:07;63.30;;;28.77;;
21392;SDS011;10857;52.228;21.026;2023-12-07T09:26:35;61.87;;;28.97;;
21392;SDS011;10857;52.228;21.026;2023-12-07T09:29:03;69.00;;;30.03;;
21392;SDS011;10857;52.228;21.026;2023-12-07T09:31:30;69.77;;;29.80;;
21392;SDS011;10857;52.228;21.026;2023-12-07T09:33:57;66.77;;;29.87;;
21392;SDS011;10857;52.228;21.026;2023-12-07T09:36:38;75.67;;;30.77;;
21392;SDS011;10857;52.228;21.026;2023-12-07T09:39:05;65.50;;;29.93;;
21392;SDS011;10857;52.228;21.026;2023-12-07T09:41:32;66.90;;;30.33;;
21392;SDS011;10857;52.228;21.026;2023-12-07T09:44:00;68.03;;;30.50;;
21392;SDS011;10857;52.228;21.026;2023-12-07T09:46:27;68.93;;;31.10;;
21392;SDS011;10857;52.228;21.026;2023-12-07T09:48:55;68.90;;;30.03;;
21392;SDS011;10857;52.228;21.026;2023-12-07T09:51:22;66.63;;;30.03;;
21392;SDS011;10857;52.228;21.026;2023-12-07T09:53:52;69.53;;;30.73;;
21392;SDS011;10857;52.228;21.026;2023-12-07T09:56:21;69.17;;;29.77;;
21392;SDS011;10857;52.228;21.026;2023-12-07T09:58:48;70.77;;;31.17;;
21392;SDS011;10857;52.228;21.026;2023-12-07T10:01:15;66.37;;;30.13;;
21392;SDS011;10857;52.228;21.026;2023-12-07T10:03:42;69.27;;;30.97;;
21392;SDS011;10857;52.228;21.026;2023-12-07T10:06:10;67.50;;;30.50;;
21392;SDS011;10857;52.228;21.026;2023-12-07T10:08:37;67.80;;;31.87;;
21392;SDS011;10857;52.228;21.026;2023-12-07T10:11:08;68.73;;;31.23;;
21392;SDS011;10857;52.228;21.026;2023-12-07T10:13:37;71.93;;;32.13;;
21392;SDS011;10857;52.228;21.026;2023-12-07T10:16:05;71.20;;;31.17;;
21392;SDS011;10857;52.228;21.026;2023-12-07T10:18:33;72.63;;;30.90;;
21392;SDS011;10857;52.228;21.026;2023-12-07T10:21:00;68.00;;;31.17;;
21392;SDS011;10857;52.228;21.026;2023-12-07T10:23:27;75.00;;;32.30;;
21392;SDS011;10857;52.228;21.026;2023-12-07T10:25:54;75.57;;;31.60;;
21392;SDS011;10857;52.228;21.026;2023-12-07T10:28:22;65.90;;;31.03;;
21392;SDS011;10857;52.228;21.026;2023-12-07T10:30:49;70.67;;;30.77;;
21392;SDS011;10857;52.228;21.026;2023-12-07T10:33:19;71.23;;;32.47;;
21392;SDS011;10857;52.228;21.026;2023-12-07T10:35:46;68.73;;;31.87;;
21392;SDS011;10857;52.228;21.026;2023-12-07T10:38:16;66.67;;;30.93;;
21392;SDS011;10857;52.228;21.026;2023-12-07T10:40:46;66.77;;;30.70;;
21392;SDS011;10857;52.228;21.026;2023-12-07T10:43:13;62.37;;;29.60;;
21392;SDS011;10857;52.228;21.026;2023-12-07T10:45:44;60.70;;;29.20;;
21392;SDS011;10857;52.228;21.026;2023-12-07T10:48:13;66.10;;;29.37;;
21392;SDS011;10857;52.228;21.026;2023-12-07T10:50:41;66.13;;;29.77;;
21392;SDS011;10857;52.228;21.026;2023-12-07T10:53:19;68.57;;;30.37;;
21392;SDS011;10857;52.228;21.026;2023-12-07T10:55:56;64.83;;;29.77;;
21392;SDS011;10857;52.228;21.026;2023-12-07T10:58:27;72.50;;;31.00;;
21392;SDS011;10857;52.228;21.026;2023-12-07T11:00:55;66.07;;;30.00;;
21392;SDS011;10857;52.228;21.026;2023-12-07T11:03:24;62.90;;;30.00;;
21392;SDS011;10857;52.228;21.026;2023-12-07T11:05:52;68.10;;;30.13;;
21392;SDS011;10857;52.228;21.026;2023-12-07T11:08:36;64.97;;;30.20;;
21392;SDS011;10857;52.228;21.026;2023-12-07T11:14:08;63.40;;;29.27;;
21392;SDS011;10857;52.228;21.026;2023-12-07T11:16:41;68.07;;;30.37;;
21392;SDS011;10857;52.228;21.026;2023-12-07T11:22:00;70.13;;;31.10;;
21392;SDS011;10857;52.228;21.026;2023-12-07T11:24:28;65.77;;;30.23;;
21392;SDS011;10857;52.228;21.026;2023-12-07T11:26:55;69.13;;;30.13;;
21392;SDS011;10857;52.228;21.026;2023-12-07T11:29:28;63.60;;;30.07;;
21392;SDS011;10857;52.228;21.026;2023-12-07T11:31:56;64.77;;;30.43;;
21392;SDS011;10857;52.228;21.026;2023-12-07T11:34:45;65.60;;;29.67;;
21392;SDS011;10857;52.228;21.026;2023-12-07T11:37:14;65.90;;;31.27;;
21392;SDS011;10857;52.228;21.026;2023-12-07T11:39:45;63.97;;;29.73;;
21392;SDS011;10857;52.228;21.026;2023-12-07T11:42:14;73.77;;;31.73;;
21392;SDS011;10857;52.228;21.026;2023-12-07T11:44:43;71.50;;;31.97;;
21392;SDS011;10857;52.228;21.026;2023-12-07T11:47:19;69.03;;;31.50;;
21392;SDS011;10857;52.228;21.026;2023-12-07T11:49:47;67.70;;;30.27;;
21392;SDS011;10857;52.228;21.026;2023-12-07T11:52:18;68.10;;;31.53;;
21392;SDS011;10857;52.228;21.026;2023-12-07T11:54:47;66.90;;;31.13;;
21392;SDS011;10857;52.228;21.026;2023-12-07T11:57:15;62.00;;;30.47;;
21392;SDS011;10857;52.228;21.026;2023-12-07T11:59:43;65.30;;;30.67;;
21392;SDS011;10857;52.228;21.026;2023-12-07T12:02:11;69.40;;;32.00;;
21392;SDS011;10857;52.228;21.026;2023-12-07T12:04:42;76.93;;;33.90;;
21392;SDS011;10857;52.228;21.026;2023-12-07T12:07:10;71.17;;;33.17;;
21392;SDS011;10857;52.228;21.026;2023-12-07T12:09:37;70.37;;;32.13;;
21392;SDS011;10857;52.228;21.026;2023-12-07T12:12:05;73.50;;;33.43;;
21392;SDS011;10857;52.228;21.026;2023-12-07T12:14:32;69.43;;;31.93;;
21392;SDS011;10857;52.228;21.026;2023-12-07T12:16:59;66.93;;;31.83;;
21392;SDS011;10857;52.228;21.026;2023-12-07T12:19:26;68.57;;;32.47;;
21392;SDS011;10857;52.228;21.026;2023-12-07T12:22:03;70.43;;;32.60;;
21392;SDS011;10857;52.228;21.026;2023-12-07T12:24:34;70.53;;;32.50;;
21392;SDS011;10857;52.228;21.026;2023-12-07T12:27:02;67.87;;;31.93;;
21392;SDS011;10857;52.228;21.026;2023-12-07T12:29:30;69.97;;;32.50;;
21392;SDS011;10857;52.228;21.026;2023-12-07T12:32:01;68.17;;;31.03;;
21392;SDS011;10857;52.228;21.026;2023-12-07T12:34:30;70.83;;;31.80;;
21392;SDS011;10857;52.228;21.026;2023-12-07T12:37:00;67.90;;;31.47;;
21392;SDS011;10857;52.228;21.026;2023-12-07T12:39:28;67.00;;;32.33;;
21392;SDS011;10857;52.228;21.026;2023-12-07T12:42:00;72.23;;;32.90;;
21392;SDS011;10857;52.228;21.026;2023-12-07T12:44:30;72.50;;;32.67;;
21392;SDS011;10857;52.228;21.026;2023-12-07T12:47:06;67.37;;;32.13;;
21392;SDS011;10857;52.228;21.026;2023-12-07T12:49:39;73.03;;;32.67;;
21392;SDS011;10857;52.228;21.026;2023-12-07T12:52:14;78.13;;;35.30;;
21392;SDS011;10857;52.228;21.026;2023-12-07T12:54:43;74.60;;;32.93;;
21392;SDS011;10857;52.228;21.026;2023-12-07T12:57:10;73.33;;;34.40;;
21392;SDS011;10857;52.228;21.026;2023-12-07T12:59:37;70.10;;;32.73;;
21392;SDS011;10857;52.228;21.026;2023-12-07T13:02:05;69.53;;;32.53;;
21392;SDS011;10857;52.228;21.026;2023-12-07T13:04:32;66.27;;;31.67;;
21392;SDS011;10857;52.228;21.026;2023-12-07T13:07:03;68.70;;;32.37;;
21392;SDS011;10857;52.228;21.026;2023-12-07T13:09:30;69.53;;;32.23;;
21392;SDS011;10857;52.228;21.026;2023-12-07T13:11:58;66.73;;;31.53;;
21392;SDS011;10857;52.228;21.026;2023-12-07T13:14:28;74.63;;;32.83;;
21392;SDS011;10857;52.228;21.026;2023-12-07T13:16:57;68.10;;;32.37;;
21392;SDS011;10857;52.228;21.026;2023-12-07T13:19:25;65.37;;;31.60;;
21392;SDS011;10857;52.228;21.026;2023-12-07T13:21:52;72.23;;;32.57;;
21392;SDS011;10857;52.228;21.026;2023-12-07T13:24:19;67.70;;;32.30;;
21392;SDS011;10857;52.228;21.026;2023-12-07T13:26:48;67.13;;;32.50;;
21392;SDS011;10857;52.228;21.026;2023-12-07T13:29:15;72.00;;;32.03;;
21392;SDS011;10857;52.228;21.026;2023-12-07T13:31:54;65.80;;;39.47;;
21392;SDS011;10857;52.228;21.026;2023-12-07T13:34:21;66.47;;;34.10;;
21392;SDS011;10857;52.228;21.026;2023-12-07T13:36:49;65.57;;;32.47;;
21392;SDS011;10857;52.228;21.026;2023-12-07T13:39:17;64.80;;;31.53;;
21392;SDS011;10857;52.228;21.026;2023-12-07T13:41:56;65.13;;;32.20;;
21392;SDS011;10857;52.228;21.026;2023-12-07T13:44:26;67.43;;;32.03;;
21392;SDS011;10857;52.228;21.026;2023-12-07T13:46:54;71.47;;;32.67;;
21392;SDS011;10857;52.228;21.026;2023-12-07T13:49:24;72.37;;;32.83;;
21392;SDS011;10857;52.228;21.026;2023-12-07T13:51:59;78.60;;;32.33;;
21392;SDS011;10857;52.228;21.026;2023-12-07T13:54:34;69.13;;;33.43;;
21392;SDS011;10857;52.228;21.026;2023-12-07T13:57:05;73.03;;;32.77;;
21392;SDS011;10857;52.228;21.026;2023-12-07T13:59:34;68.90;;;32.17;;
21392;SDS011;10857;52.228;21.026;2023-12-07T14:02:04;71.40;;;33.07;;
21392;SDS011;10857;52.228;21.026;2023-12-07T14:04:31;68.47;;;32.50;;
21392;SDS011;10857;52.228;21.026;2023-12-07T14:09:36;70.43;;;32.93;;
21392;SDS011;10857;52.228;21.026;2023-12-07T14:12:22;72.63;;;32.37;;
21392;SDS011;10857;52.228;21.026;2023-12-07T14:14:49;70.33;;;32.63;;
21392;SDS011;10857;52.228;21.026;2023-12-07T14:17:17;68.67;;;32.27;;
21392;SDS011;10857;52.228;21.026;2023-12-07T14:19:52;70.33;;;32.47;;
21392;SDS011;10857;52.228;21.026;2023-12-07T14:22:35;65.70;;;31.17;;
21392;SDS011;10857;52.228;21.026;2023-12-07T14:25:03;69.60;;;32.43;;
21392;SDS011;10857;52.228;21.026;2023-12-07T14:27:31;74.67;;;33.07;;